sensor_id;sensor_type;location;lat;lon;timestamp;P1;durP1;ratioP1;P2;durP2;ratioP2
77802;SDS011;66993;48.256;16.422;2023-01-15T15:12:20;9.7;;;6.2;;
77802;SDS011;66993;48.256;16.422;2023-01-15T15:12:34;9.7;;;6.2;;
77802;SDS011;66993;48.256;16.422;2023-01-15T15:12:47;9.7;;;6.2;;
77802;SDS011;66993;48.256;16.422;2023-01-15T15:57:37;10;;;12;;
77802;SDS011;66993;48.256;16.422;2023-01-15T15:58:57;10;;;12;;
77802;SDS011;66993;48.256;16.422;2023-01-15T16:00:57;24.2;;;15.2;;
77802;SDS011;66993;48.256;16.422;2023-01-15T16:28:04;19.6;;;14.2;;
77802;SDS011;66993;48.256;16.422;2023-01-15T16:35:13;9.9;;;6.4;;
77802;SDS011;66993;48.256;16.422;2023-01-15T17:16:18;6.6;;;5.4;;
77802;SDS011;66993;48.256;16.422;2023-01-15T17:17:22;7.2;;;4.8;;
77802;SDS011;66993;48.256;16.422;2023-01-15T17:18:19;7.0;;;5.0;;
77802;SDS011;66993;48.256;16.422;2023-01-15T17:19:18;6.5;;;5.3;;
77802;SDS011;66993;48.256;16.422;2023-01-15T17:26:20;8.4;;;4.2;;
77802;SDS011;66993;48.256;16.422;2023-01-15T17:31:23;6.5;;;4.5;;
77802;SDS011;66993;48.256;16.422;2023-01-15T17:36:23;5.1;;;3.6;;
77802;SDS011;66993;48.256;16.422;2023-01-15T17:41:25;4.1;;;3.2;;
77802;SDS011;66993;48.256;16.422;2023-01-15T17:46:25;3.1;;;2.4;;
77802;SDS011;66993;48.256;16.422;2023-01-15T17:51:27;4.0;;;2.6;;
77802;SDS011;66993;48.256;16.422;2023-01-15T17:56:28;15.4;;;7.2;;
77802;SDS011;66993;48.256;16.422;2023-01-15T18:01:31;5.0;;;3.3;;
77802;SDS011;66993;48.256;16.422;2023-01-15T18:06:31;3.6;;;2.8;;
77802;SDS011;66993;48.256;16.422;2023-01-15T18:11:32;3.1;;;2.4;;
77802;SDS011;66993;48.256;16.422;2023-01-15T18:16:34;4.3;;;2.4;;
77802;SDS011;66993;48.256;16.422;2023-01-15T18:21:36;3.7;;;2.6;;
77802;SDS011;66993;48.256;16.422;2023-01-15T18:26:37;3.7;;;2.6;;
77802;SDS011;66993;48.256;16.422;2023-01-15T18:31:38;3.3;;;2.5;;
77802;SDS011;66993;48.256;16.422;2023-01-15T18:36:40;2.8;;;2.3;;
77802;SDS011;66993;48.256;16.422;2023-01-15T18:41:40;2.3;;;1.7;;
77802;SDS011;66993;48.256;16.422;2023-01-15T18:46:42;3.7;;;2.4;;
77802;SDS011;66993;48.256;16.422;2023-01-15T18:51:43;3.8;;;2.1;;
77802;SDS011;66993;48.256;16.422;2023-01-15T18:56:44;3.3;;;2.4;;
77802;SDS011;66993;48.256;16.422;2023-01-15T19:01:46;2.9;;;2.1;;
77802;SDS011;66993;48.256;16.422;2023-01-15T19:06:47;4.7;;;2.1;;
77802;SDS011;66993;48.256;16.422;2023-01-15T19:11:49;3.4;;;2.2;;
77802;SDS011;66993;48.256;16.422;2023-01-15T19:16:50;2.8;;;1.9;;
77802;SDS011;66993;48.256;16.422;2023-01-15T19:21:51;3.8;;;2.9;;
77802;SDS011;66993;48.256;16.422;2023-01-15T19:26:52;2.6;;;1.9;;
77802;SDS011;66993;48.256;16.422;2023-01-15T19:31:54;2.5;;;1.9;;
77802;SDS011;66993;48.256;16.422;2023-01-15T19:36:55;3.3;;;1.9;;
77802;SDS011;66993;48.256;16.422;2023-01-15T19:41:57;2.4;;;1.9;;
77802;SDS011;66993;48.256;16.422;2023-01-15T19:46:58;3.2;;;2.5;;
77802;SDS011;66993;48.256;16.422;2023-01-15T19:51:59;2.8;;;2.2;;
77802;SDS011;66993;48.256;16.422;2023-01-15T19:57:01;3.1;;;2.1;;
77802;SDS011;66993;48.256;16.422;2023-01-15T20:02:02;2.9;;;2.2;;
77802;SDS011;66993;48.256;16.422;2023-01-15T20:07:03;3.0;;;2.1;;
77802;SDS011;66993;48.256;16.422;2023-01-15T20:12:05;3.0;;;2.4;;
77802;SDS011;66993;48.256;16.422;2023-01-15T20:17:06;3.4;;;2.3;;
77802;SDS011;66993;48.256;16.422;2023-01-15T20:22:07;3.2;;;2.4;;
77802;SDS011;66993;48.256;16.422;2023-01-15T20:27:10;3.8;;;2.5;;
77802;SDS011;66993;48.256;16.422;2023-01-15T20:32:10;2.7;;;2.2;;
77802;SDS011;66993;48.256;16.422;2023-01-15T20:37:11;2.7;;;2.5;;
77802;SDS011;66993;48.256;16.422;2023-01-15T20:42:01;;;;;;
77802;SDS011;66993;48.256;16.422;2023-01-15T20:42:13;2.5;;;2.2;;
77802;SDS011;66993;48.256;16.422;2023-01-15T20:42:16;;;;;;
77802;SDS011;66993;48.256;16.422;2023-01-15T20:42:31;;;;;;
77802;SDS011;66993;48.256;16.422;2023-01-15T20:42:46;;;;;;
77802;SDS011;66993;48.256;16.422;2023-01-15T20:43:01;;;;;;
77802;SDS011;66993;48.256;16.422;2023-01-15T20:43:16;;;;;;
77802;SDS011;66993;48.256;16.422;2023-01-15T20:47:14;2.7;;;2.0;;
77802;SDS011;66993;48.256;16.422;2023-01-15T20:52:15;2.2;;;2.0;;
77802;SDS011;66993;48.256;16.422;2023-01-15T20:57:17;2.4;;;2.1;;
77802;SDS011;66993;48.256;16.422;2023-01-15T21:02:18;4.2;;;3.1;;
77802;SDS011;66993;48.256;16.422;2023-01-15T21:07:20;2.7;;;1.9;;
77802;SDS011;66993;48.256;16.422;2023-01-15T21:12:21;3.1;;;2.0;;
77802;SDS011;66993;48.256;16.422;2023-01-15T21:17:22;3.0;;;2.1;;
77802;SDS011;66993;48.256;16.422;2023-01-15T21:22:24;2.6;;;2.0;;
77802;SDS011;66993;48.256;16.422;2023-01-15T21:27:25;2.4;;;2.0;;
77802;SDS011;66993;48.256;16.422;2023-01-15T21:37:28;2.9;;;2.6;;
77802;SDS011;66993;48.256;16.422;2023-01-15T21:41:58;2.9;;;2.0;;
77802;SDS011;66993;48.256;16.422;2023-01-15T21:47:18;3.6;;;2.2;;
77802;SDS011;66993;48.256;16.422;2023-01-15T21:52:19;4.0;;;2.5;;
77802;SDS011;66993;48.256;16.422;2023-01-15T21:57:20;3.6;;;3.0;;
77802;SDS011;66993;48.256;16.422;2023-01-15T22:02:21;3.3;;;2.7;;
77802;SDS011;66993;48.256;16.422;2023-01-15T22:07:23;3.9;;;3.2;;
77802;SDS011;66993;48.256;16.422;2023-01-15T22:12:24;5.0;;;3.6;;
77802;SDS011;66993;48.256;16.422;2023-01-15T22:17:25;3.9;;;2.6;;
77802;SDS011;66993;48.256;16.422;2023-01-15T22:22:27;4.1;;;2.9;;
77802;SDS011;66993;48.256;16.422;2023-01-15T22:27:28;3.3;;;3.0;;
77802;SDS011;66993;48.256;16.422;2023-01-15T22:32:30;3.1;;;2.6;;
77802;SDS011;66993;48.256;16.422;2023-01-15T22:37:31;3.4;;;2.8;;
77802;SDS011;66993;48.256;16.422;2023-01-15T22:42:33;3.9;;;2.2;;
77802;SDS011;66993;48.256;16.422;2023-01-15T22:47:34;3.2;;;2.8;;
77802;SDS011;66993;48.256;16.422;2023-01-15T22:52:36;4.1;;;2.3;;
77802;SDS011;66993;48.256;16.422;2023-01-15T22:57:37;3.2;;;2.9;;
77802;SDS011;66993;48.256;16.422;2023-01-15T23:02:38;3.2;;;2.5;;
77802;SDS011;66993;48.256;16.422;2023-01-15T23:07:40;4.4;;;2.2;;
77802;SDS011;66993;48.256;16.422;2023-01-15T23:12:41;4.0;;;2.8;;
77802;SDS011;66993;48.256;16.422;2023-01-15T23:17:42;3.5;;;3.2;;
77802;SDS011;66993;48.256;16.422;2023-01-15T23:22:44;3.4;;;2.9;;
77802;SDS011;66993;48.256;16.422;2023-01-15T23:27:45;3.2;;;2.6;;
77802;SDS011;66993;48.256;16.422;2023-01-15T23:32:47;2.8;;;1.9;;
77802;SDS011;66993;48.256;16.422;2023-01-15T23:37:48;3.0;;;2.3;;
77802;SDS011;66993;48.256;16.422;2023-01-15T23:42:50;2.5;;;2.2;;
77802;SDS011;66993;48.256;16.422;2023-01-15T23:47:51;2.9;;;2.4;;
77802;SDS011;66993;48.256;16.422;2023-01-15T23:52:52;4.5;;;3.1;;
77802;SDS011;66993;48.256;16.422;2023-01-15T23:57:54;2.7;;;2.1;;
